Time;durP1;ratioP1;P1;durP2;ratioP2;P2;SDS_P1;SDS_P2;PMS_P1;PMS_P2;Temp;Humidity;BMP_temperature;BMP_pressure;BME280_temperature;BME280_humidity;BME280_pressure;Samples;Min_cycle;Max_cycle;Signal;HPM_P1;HPM_P2
2021/08/25 00:02:10;;;;;;;;;19.00;19.00;;;;;;;;6488870;46;9013;-61
2021/08/25 00:08:12;;;;;;;;;25.00;21.00;;;;;;;;6489177;39;8985;-62
2021/08/25 00:14:15;;;;;;;;;16.67;16.67;;;;;;;;6489114;39;9065;-61
2021/08/25 00:20:17;;;;;;;;;21.00;19.67;;;;;;;;6489102;46;9061;-61
2021/08/25 00:26:19;;;;;;;;;21.67;20.33;;;;;;;;6489570;31;9014;-61
2021/08/25 00:32:21;;;;;;;;;22.00;18.67;;;;;;;;6489125;47;8961;-62
2021/08/25 00:38:23;;;;;;;;;17.67;17.67;;;;;;;;6490184;31;9090;-61
2021/08/25 00:44:27;;;;;;;;;20.33;19.33;;;;;;;;6489777;31;9011;-62
2021/08/25 00:50:29;;;;;;;;;17.33;17.33;;;;;;;;6488768;39;8955;-60
2021/08/25 00:56:32;;;;;;;;;17.00;17.00;;;;;;;;6488931;39;9056;-61
2021/08/25 01:02:41;;;;;;;;;15.67;15.67;;;;;;;;6489232;39;9094;-60
2021/08/25 01:08:43;;;;;;;;;17.33;14.00;;;;;;;;6491098;39;9104;-61
2021/08/25 01:14:46;;;;;;;;;19.33;19.33;;;;;;;;6490418;46;9015;-61
2021/08/25 01:20:49;;;;;;;;;20.33;20.33;;;;;;;;6491341;31;8973;-59
2021/08/25 01:26:52;;;;;;;;;29.67;22.67;;;;;;;;6490408;46;9075;-61
2021/08/25 01:32:55;;;;;;;;;23.33;22.00;;;;;;;;6490740;39;9057;-61
2021/08/25 01:38:58;;;;;;;;;25.67;23.67;;;;;;;;6490165;46;8993;-60
2021/08/25 01:45:00;;;;;;;;;27.33;25.67;;;;;;;;6489608;31;8977;-60
2021/08/25 01:51:03;;;;;;;;;28.67;25.67;;;;;;;;6490785;46;8954;-60
2021/08/25 01:57:07;;;;;;;;;28.33;26.67;;;;;;;;6491024;39;8966;-61
2021/08/25 02:03:09;;;;;;;;;29.33;26.33;;;;;;;;6490660;39;9051;-61
2021/08/25 02:09:11;;;;;;;;;23.67;23.67;;;;;;;;6489631;39;8965;-59
2021/08/25 02:15:14;;;;;;;;;26.67;24.67;;;;;;;;6489759;39;8930;-61
2021/08/25 02:21:16;;;;;;;;;24.33;22.00;;;;;;;;6489885;39;9412;-60
2021/08/25 02:27:18;;;;;;;;;26.33;21.00;;;;;;;;6489786;31;9062;-60
2021/08/25 02:33:21;;;;;;;;;30.33;30.33;;;;;;;;6489129;39;8965;-61
2021/08/25 02:39:23;;;;;;;;;27.00;25.67;;;;;;;;6490769;39;8946;-61
2021/08/25 02:45:25;;;;;;;;;27.67;27.33;;;;;;;;6490089;46;9016;-60
2021/08/25 02:51:28;;;;;;;;;35.00;28.33;;;;;;;;6490707;39;9017;-60
2021/08/25 02:57:30;;;;;;;;;28.00;25.67;;;;;;;;6489574;46;8953;-61
2021/08/25 03:03:32;;;;;;;;;30.33;28.67;;;;;;;;6489415;31;8974;-61
2021/08/25 03:09:35;;;;;;;;;31.33;28.67;;;;;;;;6489813;31;9098;-61
2021/08/25 03:15:37;;;;;;;;;29.33;26.00;;;;;;;;6490056;31;8962;-60
2021/08/25 03:21:43;;;;;;;;;33.33;31.67;;;;;;;;6489408;39;8945;-61
2021/08/25 03:27:45;;;;;;;;;31.33;29.33;;;;;;;;6488351;31;9002;-60
2021/08/25 03:33:47;;;;;;;;;30.67;28.00;;;;;;;;6488868;31;9112;-61
2021/08/25 03:39:56;;;;;;;;;32.67;30.67;;;;;;;;6488864;39;8962;-60
2021/08/25 03:45:58;;;;;;;;;33.67;31.00;;;;;;;;6489305;39;8946;-61
2021/08/25 03:52:01;;;;;;;;;30.33;30.33;;;;;;;;6489709;39;9591;-61
2021/08/25 03:58:05;;;;;;;;;33.00;31.33;;;;;;;;6489293;46;9073;-60
2021/08/25 04:04:08;;;;;;;;;31.67;30.00;;;;;;;;6470350;39;9015;-61
